Time;durP1;ratioP1;P1;durP2;ratioP2;P2;SDS_P1;SDS_P2;PMS_P1;PMS_P2;Temp;Humidity;BMP_temperature;BMP_pressure;BME280_temperature;BME280_humidity;BME280_pressure;Samples;Min_cycle;Max_cycle;Signal;HPM_P1;HPM_P2
2021/10/28 00:14:27;;;;;;;12.07;6.93;;;;;;;7.86;65.34;99424.69;5102935;28;20039;-58
2021/10/28 00:16:55;;;;;;;11.77;7.50;;;;;;;7.79;65.51;99413.66;5099418;28;20032;-56
2021/10/28 00:19:21;;;;;;;9.35;6.68;;;;;;;7.85;65.45;99423.84;5098589;28;20034;-57
2021/10/28 00:21:49;;;;;;;10.90;7.30;;;;;;;7.83;65.64;99422.25;5110877;28;20102;-57
2021/10/28 00:24:15;;;;;;;10.25;6.85;;;;;;;7.83;65.73;99409.78;5095409;28;20116;-57
2021/10/28 00:26:43;;;;;;;13.95;7.20;;;;;;;7.87;65.59;99400.56;5107686;28;20027;-55
2021/10/28 00:29:15;;;;;;;11.90;6.80;;;;;;;7.88;65.60;99404.09;5103187;28;20034;-59
2021/10/28 00:31:42;;;;;;;10.63;6.65;;;;;;;7.84;65.47;99397.31;5111132;28;20081;-50
2021/10/28 00:34:10;;;;;;;9.98;6.55;;;;;;;7.86;65.71;99388.22;5094664;28;20039;-58
2021/10/28 00:36:37;;;;;;;10.80;6.70;;;;;;;7.85;65.84;99394.50;5108560;28;20035;-56
2021/10/28 00:39:07;;;;;;;10.80;6.43;;;;;;;7.85;66.05;99385.69;5085166;28;20363;-58
2021/10/28 00:41:33;;;;;;;10.60;7.05;;;;;;;7.83;65.93;99371.59;5105824;28;20024;-63
2021/10/28 00:44:00;;;;;;;12.70;7.60;;;;;;;7.84;65.96;99379.50;5112843;28;20030;-56
2021/10/28 00:46:33;;;;;;;11.30;6.90;;;;;;;7.83;65.86;99367.13;5105221;28;20035;-55
2021/10/28 00:49:01;;;;;;;10.48;6.53;;;;;;;7.84;65.85;99366.16;5111242;28;20472;-57
2021/10/28 00:51:27;;;;;;;13.98;7.25;;;;;;;7.87;65.78;99363.25;5111184;27;20753;-53
2021/10/28 00:53:54;;;;;;;12.48;6.95;;;;;;;7.83;65.85;99345.81;5104444;27;20043;-57
2021/10/28 00:56:21;;;;;;;12.75;7.18;;;;;;;7.87;65.90;99344.59;5103082;27;20032;-56
2021/10/28 00:58:47;;;;;;;11.88;7.93;;;;;;;7.93;65.89;99345.09;5104530;27;20020;-57
2021/10/28 01:01:15;;;;;;;10.25;6.53;;;;;;;7.92;65.90;99343.38;5105999;28;20031;-56
2021/10/28 01:03:42;;;;;;;14.90;7.22;;;;;;;7.97;65.82;99336.75;5083333;28;20032;-56
2021/10/28 01:06:08;;;;;;;11.50;6.55;;;;;;;8.03;65.56;99340.75;5103029;28;20573;-54
2021/10/28 01:08:39;;;;;;;13.38;6.65;;;;;;;8.09;65.54;99337.59;5102257;28;20034;-57
2021/10/28 01:11:08;;;;;;;13.52;7.25;;;;;;;8.13;65.54;99323.06;5103321;28;20043;-56
2021/10/28 01:13:36;;;;;;;12.45;6.82;;;;;;;8.14;65.33;99324.75;5103782;28;20044;-57
2021/10/28 01:16:03;;;;;;;11.57;7.03;;;;;;;8.10;65.07;99309.97;5098495;28;20055;-57
2021/10/28 01:18:30;;;;;;;12.80;8.00;;;;;;;8.17;65.06;99300.50;5096223;28;20467;-57
2021/10/28 01:20:56;;;;;;;12.38;7.53;;;;;;;8.13;65.05;99303.56;5116479;27;20070;-57
2021/10/28 01:23:24;;;;;;;11.80;7.57;;;;;;;8.23;65.19;99298.34;5108246;27;20062;-56
2021/10/28 01:25:55;;;;;;;11.20;7.70;;;;;;;8.26;64.66;99298.09;5123531;27;20090;-56
2021/10/28 01:28:22;;;;;;;10.10;7.53;;;;;;;8.01;65.02;99246.72;5127927;27;20027;-56
2021/10/28 01:30:51;;;;;;;12.15;7.25;;;;;;;8.21;65.08;99281.63;5094308;28;20483;-59
2021/10/28 01:33:18;;;;;;;21.92;7.75;;;;;;;8.22;64.80;99286.00;5112194;27;20034;-60
2021/10/28 01:35:44;;;;;;;12.27;7.50;;;;;;;8.19;65.23;99279.06;5124037;27;20494;-56
2021/10/28 01:38:12;;;;;;;15.27;7.05;;;;;;;8.16;65.20;99277.47;5129814;27;20158;-58
2021/10/28 01:40:38;;;;;;;9.60;7.25;;;;;;;8.14;65.30;99274.09;5126221;27;20031;-58
2021/10/28 01:43:04;;;;;;;10.98;7.18;;;;;;;8.17;65.35;99267.69;5103688;28;20059;-55
2021/10/28 01:45:30;;;;;;;12.20;7.57;;;;;;;8.14;65.21;99276.75;5102217;28;20448;-56
2021/10/28 01:47:56;;;;;;;14.18;7.53;;;;;;;7.97;65.32;99239.94;5111667;28;20491;-55
2021/10/28 01:50:22;;;;;;;10.85;7.82;;;;;;;8.10;65.41;99272.63;5111624;28;20058;-57
2021/10/28 01:52:48;;;;;;;12.02;7.43;;;;;;;8.07;65.65;99256.03;5111146;28;20031;-56
2021/10/28 01:55:14;;;;;;;13.98;8.57;;;;;;;8.06;66.06;99252.53;5111309;28;20027;-56
2021/10/28 01:57:41;;;;;;;11.15;7.70;;;;;;;8.08;65.89;99255.06;5098685;28;20036;-55
2021/10/28 02:00:19;;;;;;;15.68;8.25;;;;;;;8.10;66.03;99248.66;5108373;28;20036;-53
2021/10/28 02:02:45;;;;;;;14.18;7.63;;;;;;;8.03;66.33;99242.13;5097573;28;20070;-56
2021/10/28 02:05:19;;;;;;;12.52;8.10;;;;;;;7.97;66.02;99235.44;5101674;28;20107;-57
2021/10/28 02:07:46;;;;;;;12.38;7.63;;;;;;;7.97;66.49;99230.13;5107546;28;20019;-55
2021/10/28 02:10:12;;;;;;;12.50;8.10;;;;;;;8.02;66.06;99229.75;5077375;28;20080;-55
2021/10/28 02:12:39;;;;;;;14.18;8.15;;;;;;;7.92;66.24;99210.13;5113488;27;20093;-57
2021/10/28 02:15:10;;;;;;;13.75;8.05;;;;;;;7.98;66.31;99214.97;5120562;27;20133;-56
2021/10/28 02:17:36;;;;;;;13.40;8.32;;;;;;;7.95;66.57;99220.53;5090901;28;20483;-54
2021/10/28 02:20:04;;;;;;;16.10;8.35;;;;;;;7.96;66.86;99206.25;5092598;28;20028;-57
2021/10/28 02:22:30;;;;;;;14.05;9.43;;;;;;;7.97;66.83;99206.13;5106963;28;20122;-59
2021/10/28 02:24:56;;;;;;;12.02;7.93;;;;;;;7.87;66.89;99187.34;5110620;28;20036;-57
2021/10/28 02:27:22;;;;;;;17.33;9.13;;;;;;;7.98;66.52;99193.66;5099269;28;20028;-55
2021/10/28 02:29:48;;;;;;;13.50;8.48;;;;;;;7.93;67.12;99187.81;5106120;28;20039;-55
2021/10/28 02:32:15;;;;;;;14.38;8.57;;;;;;;7.93;67.31;99179.81;5109177;28;20031;-56
2021/10/28 02:34:41;;;;;;;15.07;9.00;;;;;;;7.90;66.99;99179.09;5096672;28;20070;-58
2021/10/28 02:37:07;;;;;;;13.20;8.70;;;;;;;7.95;67.11;99176.06;5096778;28;20426;-58
2021/10/28 02:39:33;;;;;;;12.73;8.65;;;;;;;7.97;66.60;99178.63;5103795;28;20107;-55
2021/10/28 02:41:59;;;;;;;15.98;8.48;;;;;;;7.97;66.87;99168.81;5119893;27;20068;-56
2021/10/28 02:44:25;;;;;;;13.27;8.65;;;;;;;7.96;67.05;99169.78;5119976;27;20096;-55
2021/10/28 02:46:51;;;;;;;12.93;8.45;;;;;;;7.85;67.06;99143.97;5116422;27;20020;-56
2021/10/28 02:49:17;;;;;;;15.07;8.60;;;;;;;7.92;67.35;99149.66;5110742;28;20036;-59
2021/10/28 02:51:47;;;;;;;13.35;9.02;;;;;;;7.91;67.56;99139.97;5113636;27;20039;-55
2021/10/28 02:54:21;;;;;;;18.65;9.40;;;;;;;7.86;67.21;99126.19;5120311;27;20031;-55
2021/10/28 02:56:47;;;;;;;14.80;8.55;;;;;;;7.89;67.11;99140.09;5125512;27;20031;-59
2021/10/28 02:59:13;;;;;;;17.23;9.68;;;;;;;7.95;66.66;99129.91;5119701;27;20024;-54
2021/10/28 03:01:42;;;;;;;12.43;8.82;;;;;;;7.92;66.84;99130.16;5097089;28;20031;-54
2021/10/28 03:04:09;;;;;;;16.35;9.40;;;;;;;7.83;67.12;99119.28;5088675;28;20279;-55
2021/10/28 03:06:38;;;;;;;17.17;9.55;;;;;;;7.89;67.07;99128.59;5095512;28;20100;-56
2021/10/28 03:09:04;;;;;;;17.95;9.90;;;;;;;7.86;67.45;99120.84;5102156;28;20055;-53
2021/10/28 03:11:30;;;;;;;17.65;9.15;;;;;;;7.80;68.01;99116.84;5100758;28;20479;-58
2021/10/28 03:13:56;;;;;;;14.68;9.80;;;;;;;7.83;67.81;99108.63;5075772;28;20032;-57
2021/10/28 03:16:32;;;;;;;15.60;9.25;;;;;;;7.85;67.94;99128.00;5107276;28;20062;-56
2021/10/28 03:27:10;;;;;;;14.52;8.88;;;;;;;7.79;68.41;99112.50;5048494;28;20048;-52
2021/10/28 03:29:36;;;;;;;16.17;9.85;;;;;;;7.56;68.56;99077.91;5103689;28;20039;-58
2021/10/28 03:32:02;;;;;;;15.85;8.82;;;;;;;7.57;68.77;99076.94;5109980;28;20040;-55
2021/10/28 03:34:27;;;;;;;13.15;8.27;;;;;;;7.68;68.81;99091.19;5091656;28;20458;-56
2021/10/28 03:37:03;;;;;;;14.82;8.65;;;;;;;7.66;69.23;99111.78;5097508;28;20031;-58
2021/10/28 03:45:26;;;;;;;11.82;8.02;;;;;;;7.65;69.19;99102.97;5091344;28;20107;-55
2021/10/28 04:30:01;;;;;;;12.00;7.93;;;;;;;7.43;72.23;99035.41;5092133;28;20039;-62
2021/10/28 04:32:28;;;;;;;10.80;7.32;;;;;;;7.72;72.33;99066.00;5109792;28;20027;-58
2021/10/28 04:34:54;;;;;;;11.82;7.40;;;;;;;7.67;72.00;99068.19;5100160;28;20511;-58
2021/10/28 04:37:19;;;;;;;12.77;7.60;;;;;;;7.72;72.03;99076.66;5103032;28;20028;-57
2021/10/28 04:39:46;;;;;;;11.15;7.63;;;;;;;7.73;72.21;99076.53;5108009;28;20035;-58
2021/10/28 04:42:12;;;;;;;11.85;7.90;;;;;;;7.78;72.60;99073.50;5096735;28;20039;-57
2021/10/28 04:44:40;;;;;;;11.05;7.63;;;;;;;7.80;72.64;99060.91;5108313;28;20024;-63
2021/10/28 04:47:06;;;;;;;11.20;7.60;;;;;;;7.83;72.09;99060.66;5083232;28;20502;-63
2021/10/28 04:49:32;;;;;;;9.90;7.07;;;;;;;7.87;71.86;99059.41;5099404;28;20173;-56
2021/10/28 04:51:57;;;;;;;12.00;6.88;;;;;;;7.90;72.16;99056.50;5109468;28;20114;-57
2021/10/28 04:54:23;;;;;;;10.10;7.68;;;;;;;7.89;72.06;99052.13;5095595;28;20031;-57
2021/10/28 04:56:49;;;;;;;13.20;7.57;;;;;;;7.96;71.93;99059.66;5106288;28;20038;-56
2021/10/28 04:59:15;;;;;;;9.98;7.43;;;;;;;7.96;71.73;99057.00;5095843;28;20035;-55
2021/10/28 05:01:40;;;;;;;9.90;7.22;;;;;;;7.93;72.19;99062.53;5106518;28;20024;-55
2021/10/28 05:04:06;;;;;;;11.32;7.30;;;;;;;7.94;72.27;99064.22;5096049;28;20032;-59
2021/10/28 05:06:32;;;;;;;10.25;7.38;;;;;;;7.98;72.45;99068.38;5107614;28;20329;-57
2021/10/28 05:08:57;;;;;;;11.65;7.47;;;;;;;7.95;72.06;99042.81;5098761;28;20054;-57
2021/10/28 05:11:24;;;;;;;12.60;7.22;;;;;;;8.00;72.07;99055.75;5079185;28;20040;-58
2021/10/28 05:13:52;;;;;;;12.32;7.40;;;;;;;7.97;72.28;99067.50;5087078;28;20032;-59
2021/10/28 05:16:18;;;;;;;12.10;7.38;;;;;;;8.02;72.49;99075.13;5074624;28;20056;-56
2021/10/28 05:18:45;;;;;;;10.45;7.20;;;;;;;8.08;72.19;99050.63;5087357;28;20036;-56
2021/10/28 05:21:12;;;;;;;12.35;7.18;;;;;;;8.13;71.81;99056.41;5081340;28;20036;-59
2021/10/28 05:23:39;;;;;;;9.90;7.10;;;;;;;8.08;72.26;99063.97;5078673;28;20029;-59
2021/10/28 05:26:06;;;;;;;8.95;6.93;;;;;;;8.08;72.36;99061.28;5088450;28;20120;-59
2021/10/28 05:28:35;;;;;;;10.43;7.18;;;;;;;8.15;72.65;99070.47;5075870;28;20380;-55
2021/10/28 05:31:02;;;;;;;13.05;7.53;;;;;;;8.14;72.46;99060.78;5084319;28;20024;-59
2021/10/28 05:33:27;;;;;;;10.73;7.20;;;;;;;8.13;72.42;99063.59;5079687;28;20040;-59
2021/10/28 05:35:53;;;;;;;10.05;6.75;;;;;;;8.14;72.56;99074.09;5086910;28;20035;-57
2021/10/28 05:38:19;;;;;;;12.55;6.80;;;;;;;8.15;72.77;99067.81;5075286;28;20032;-56
2021/10/28 05:40:45;;;;;;;10.45;6.75;;;;;;;8.16;73.06;99069.50;5083584;28;20097;-54
2021/10/28 05:43:11;;;;;;;9.63;5.88;;;;;;;8.21;73.00;99068.28;5081214;28;20111;-56
2021/10/28 05:45:37;;;;;;;8.25;6.03;;;;;;;8.17;73.19;99054.34;5091484;28;20028;-57
2021/10/28 05:48:04;;;;;;;8.13;6.15;;;;;;;8.25;72.70;99067.88;5074678;28;20119;-56
2021/10/28 05:50:30;;;;;;;7.50;6.03;;;;;;;8.22;73.06;99046.81;5087873;28;20020;-57
2021/10/28 05:52:58;;;;;;;7.05;5.47;;;;;;;8.28;73.13;99050.78;5078875;28;20020;-57
2021/10/28 05:55:24;;;;;;;6.45;5.15;;;;;;;8.31;72.74;99053.19;5079958;28;20032;-56
2021/10/28 05:57:52;;;;;;;12.88;6.72;;;;;;;8.35;72.54;99051.97;5070486;28;20396;-57
2021/10/28 06:00:19;;;;;;;12.88;5.85;;;;;;;8.42;72.80;99058.47;5087383;28;20035;-60
2021/10/28 06:02:45;;;;;;;7.57;5.40;;;;;;;8.49;72.10;99045.47;5071670;28;20033;-58
2021/10/28 06:05:11;;;;;;;7.38;5.43;;;;;;;8.28;72.28;99008.13;5072125;28;20035;-55
2021/10/28 06:07:37;;;;;;;8.02;5.88;;;;;;;8.57;72.54;99055.53;5084384;28;20028;-54
2021/10/28 06:10:03;;;;;;;7.72;5.18;;;;;;;8.57;72.25;99039.50;5079953;28;20068;-58
2021/10/28 06:12:34;;;;;;;7.60;5.45;;;;;;;8.69;72.19;99054.50;5107324;28;20070;-56
2021/10/28 06:15:00;;;;;;;7.30;5.18;;;;;;;8.74;72.09;99049.59;5099374;28;20059;-56
2021/10/28 06:17:33;;;;;;;8.75;5.22;;;;;;;8.82;72.03;99053.44;5088673;28;20031;-59
2021/10/28 06:19:59;;;;;;;6.75;4.32;;;;;;;8.81;71.79;99051.75;5093559;28;20484;-55
2021/10/28 06:22:26;;;;;;;7.28;4.25;;;;;;;8.80;71.91;99058.06;5108119;28;20038;-58
2021/10/28 06:24:52;;;;;;;6.13;4.82;;;;;;;8.85;72.07;99058.50;5097522;28;20032;-54
2021/10/28 06:27:17;;;;;;;5.55;4.68;;;;;;;8.87;72.08;99061.88;5099492;28;20085;-59
2021/10/28 06:29:43;;;;;;;7.78;4.72;;;;;;;8.91;71.93;99063.31;5083171;28;20036;-58
2021/10/28 06:32:08;;;;;;;5.90;4.40;;;;;;;8.66;71.86;99014.69;5099489;28;20087;-58
2021/10/28 06:34:39;;;;;;;7.82;4.57;;;;;;;8.96;72.03;99058.44;5098329;28;20020;-54
2021/10/28 06:37:05;;;;;;;6.30;4.43;;;;;;;8.93;71.95;99063.19;5099408;28;20028;-64
2021/10/28 06:39:34;;;;;;;6.32;4.00;;;;;;;9.07;72.04;99064.66;5101614;28;20036;-62
2021/10/28 06:42:00;;;;;;;8.98;4.72;;;;;;;9.00;72.51;99049.19;5096015;28;20372;-61
2021/10/28 06:44:25;;;;;;;9.73;4.20;;;;;;;9.16;71.90;99063.84;5089054;28;20024;-62
2021/10/28 06:46:51;;;;;;;6.90;3.90;;;;;;;9.10;71.50;99051.03;5097705;28;20024;-63
2021/10/28 06:49:19;;;;;;;7.53;3.67;;;;;;;9.13;71.52;99062.31;5101611;28;20033;-60
2021/10/28 06:51:44;;;;;;;7.05;4.10;;;;;;;9.22;71.89;99081.16;5099845;28;20079;-60
2021/10/28 06:54:20;;;;;;;5.05;3.63;;;;;;;9.30;71.54;99058.16;5099922;28;20031;-54
2021/10/28 07:02:33;;;;;;;4.93;3.17;;;;;;;9.66;71.16;99065.72;5098172;28;20020;-59
2021/10/28 07:05:00;;;;;;;3.63;2.92;;;;;;;9.73;70.70;99058.84;5103460;28;20033;-60
2021/10/28 07:07:29;;;;;;;4.53;3.05;;;;;;;9.73;70.89;99074.88;5080042;28;20662;-58
2021/10/28 07:10:16;;;;;;;6.20;3.05;;;;;;;9.73;70.82;99074.06;5097370;28;20071;-57
2021/10/28 07:26:18;;;;;;;5.47;2.90;;;;;;;9.94;70.73;99079.28;5092933;28;20039;-58
2021/10/28 07:56:50;;;;;;;4.22;2.72;;;;;;;10.59;69.41;99083.28;5089712;28;20032;-56
2021/10/28 08:18:14;;;;;;;2.17;1.77;;;;;;;10.93;68.34;99074.78;5071973;28;20131;-55
2021/10/28 08:23:12;;;;;;;2.88;2.10;;;;;;;11.03;68.94;99099.69;5099987;28;20028;-58
2021/10/28 08:28:46;;;;;;;3.53;1.85;;;;;;;11.17;68.35;99109.09;5099802;28;19914;-56
2021/10/28 08:31:17;;;;;;;3.63;2.33;;;;;;;11.14;68.75;99106.72;5097490;28;20036;-54
2021/10/28 08:33:42;;;;;;;2.30;1.65;;;;;;;11.23;68.79;99113.03;5098362;28;20066;-55
2021/10/28 08:36:12;;;;;;;4.82;2.33;;;;;;;11.32;68.01;99117.50;5100759;28;20075;-56
2021/10/28 08:38:40;;;;;;;2.88;2.10;;;;;;;11.41;67.88;99131.88;5100068;28;20028;-56
2021/10/28 08:41:10;;;;;;;2.80;2.25;;;;;;;11.51;67.93;99139.06;5098759;28;20020;-54
2021/10/28 08:43:41;;;;;;;3.63;1.90;;;;;;;11.50;67.84;99130.16;5101306;28;20036;-57
2021/10/28 08:46:08;;;;;;;2.63;2.00;;;;;;;11.53;68.40;99123.66;5095147;28;20024;-57
2021/10/28 08:48:37;;;;;;;3.42;1.85;;;;;;;11.67;68.09;99135.75;5099516;28;20434;-59
2021/10/28 08:51:07;;;;;;;2.47;1.80;;;;;;;11.80;67.49;99138.06;5093248;28;20056;-55
2021/10/28 08:56:38;;;;;;;4.25;1.88;;;;;;;11.92;66.55;99132.38;5110269;28;20081;-54
2021/10/28 09:24:37;;;;;;;2.07;1.63;;;;;;;12.38;66.22;99153.03;5093586;28;20073;-54
2021/10/28 09:43:57;;;;;;;3.33;2.08;;;;;;;12.37;67.00;99177.31;5092902;28;20024;-54
2021/10/28 09:51:36;;;;;;;2.78;2.10;;;;;;;12.60;66.62;99173.19;5092285;28;20085;-57
2021/10/28 09:59:31;;;;;;;3.77;1.80;;;;;;;12.83;65.55;99188.84;5092627;28;20028;-57
2021/10/28 10:02:20;;;;;;;2.38;1.65;;;;;;;12.78;65.75;99180.41;5091757;28;20020;-56
2021/10/28 10:04:45;;;;;;;2.75;1.70;;;;;;;12.67;66.08;99181.50;5091453;28;20563;-56
2021/10/28 10:07:12;;;;;;;2.90;1.77;;;;;;;12.58;66.26;99193.97;5092377;28;20063;-55
2021/10/28 10:09:38;;;;;;;3.80;1.70;;;;;;;12.53;66.83;99190.06;5091588;28;20473;-57
2021/10/28 10:12:06;;;;;;;1.75;1.42;;;;;;;12.55;66.26;99190.78;5092036;28;20059;-59
2021/10/28 10:14:34;;;;;;;3.45;1.48;;;;;;;12.48;66.75;99196.72;5092659;28;20032;-60
2021/10/28 10:17:00;;;;;;;1.70;1.58;;;;;;;12.35;67.12;99198.97;5091777;28;20046;-58
2021/10/28 10:19:37;;;;;;;3.03;1.45;;;;;;;12.36;67.29;99203.34;5091700;28;20028;-57
2021/10/28 12:44:27;;;;;;;2.15;1.00;;;;;;;12.54;60.51;99466.50;5114426;28;20046;-58
2021/10/28 14:17:30;;;;;;;0.95;0.77;;;;;;;10.82;67.31;99688.19;5112147;28;20070;-61
2021/10/28 14:21:25;;;;;;;1.30;0.70;;;;;;;10.62;66.34;99650.56;5112747;28;20274;-61
2021/10/28 15:29:05;;;;;;;4.32;0.70;;;;;;;9.77;66.92;99882.88;5110730;28;20028;-61
2021/10/28 15:57:36;;;;;;;1.35;0.40;;;;;;;9.52;64.84;99954.22;5114905;28;20023;-65
2021/10/28 16:22:04;;;;;;;0.95;0.40;;;;;;;9.24;63.35;100033.72;5114177;28;20059;-61
2021/10/28 16:24:33;;;;;;;1.80;0.60;;;;;;;9.25;63.35;100038.13;5096290;28;20219;-63
2021/10/28 16:26:59;;;;;;;0.55;0.50;;;;;;;9.22;63.73;100043.69;5099253;28;20096;-63
2021/10/28 16:29:25;;;;;;;0.50;0.50;;;;;;;9.21;63.50;100055.34;5104167;28;20065;-64
2021/10/28 16:31:51;;;;;;;1.17;0.70;;;;;;;9.14;62.71;100046.03;5096045;28;20034;-64
2021/10/28 16:34:18;;;;;;;0.50;0.40;;;;;;;8.82;62.64;100014.44;5114478;28;20023;-60
2021/10/28 16:36:46;;;;;;;0.57;0.47;;;;;;;9.08;62.16;100065.16;5088654;28;20023;-61
2021/10/28 16:39:13;;;;;;;0.63;0.38;;;;;;;9.03;62.28;100070.81;5095079;28;20043;-62
2021/10/28 16:41:44;;;;;;;1.92;0.30;;;;;;;9.00;62.51;100074.59;5085106;28;20503;-63
2021/10/28 16:44:10;;;;;;;0.88;0.40;;;;;;;9.02;62.73;100074.47;5113396;28;20106;-63
2021/10/28 16:46:37;;;;;;;0.75;0.40;;;;;;;9.05;62.42;100101.81;5078010;28;20031;-62
2021/10/28 16:49:04;;;;;;;1.33;0.70;;;;;;;9.10;62.91;100100.63;5106144;28;20031;-64
2021/10/28 16:51:32;;;;;;;0.88;0.70;;;;;;;8.81;62.66;100055.47;5085287;28;20042;-63
2021/10/28 16:53:57;;;;;;;1.75;0.50;;;;;;;9.01;62.70;100103.00;5083805;28;20027;-65
2021/10/28 16:56:23;;;;;;;1.52;0.35;;;;;;;8.86;62.38;100078.22;5089833;28;20079;-66
2021/10/28 16:58:49;;;;;;;0.70;0.50;;;;;;;9.08;62.23;100119.44;5112906;28;20046;-64
2021/10/28 17:01:14;;;;;;;0.75;0.50;;;;;;;9.07;62.34;100127.56;5106018;28;20039;-61
2021/10/28 17:03:40;;;;;;;0.85;0.52;;;;;;;9.06;62.54;100129.41;5109248;28;20165;-62
2021/10/28 17:06:07;;;;;;;1.13;0.40;;;;;;;9.07;62.00;100140.91;5098756;28;20058;-62
2021/10/28 17:08:33;;;;;;;1.33;0.77;;;;;;;9.12;60.80;100136.09;5109731;28;20031;-62
2021/10/28 17:11:00;;;;;;;1.95;0.75;;;;;;;9.14;60.43;100152.88;5112330;28;20051;-59
2021/10/28 17:13:26;;;;;;;0.77;0.50;;;;;;;9.05;61.10;100151.72;5085779;28;20032;-62
2021/10/28 17:15:52;;;;;;;1.25;0.65;;;;;;;9.08;60.39;100158.66;5110786;28;20035;-63
2021/10/28 17:18:18;;;;;;;1.30;1.00;;;;;;;9.04;60.83;100156.19;5079246;28;20128;-66
2021/10/28 17:20:43;;;;;;;1.55;1.10;;;;;;;8.95;60.07;100148.81;5111792;28;20395;-67
2021/10/28 17:23:14;;;;;;;1.02;1.00;;;;;;;9.05;59.72;100157.06;5092794;28;20482;-65
2021/10/28 17:25:40;;;;;;;2.53;1.20;;;;;;;9.02;58.42;100160.78;5112957;28;20535;-64
2021/10/28 17:28:10;;;;;;;1.90;1.35;;;;;;;8.98;58.87;100161.97;5112718;28;20032;-64
2021/10/28 17:30:36;;;;;;;1.40;1.30;;;;;;;8.93;58.60;100166.78;5113097;28;20031;-64
2021/10/28 17:33:02;;;;;;;1.83;1.30;;;;;;;8.92;58.62;100157.03;5112951;28;20437;-63
2021/10/28 17:35:28;;;;;;;2.15;1.83;;;;;;;8.94;58.30;100160.47;5112863;28;20080;-63
2021/10/28 17:37:54;;;;;;;2.28;1.75;;;;;;;8.96;58.47;100169.22;5112625;28;20077;-64
2021/10/28 17:40:19;;;;;;;1.83;1.60;;;;;;;8.85;58.18;100150.41;5113658;28;20103;-63
2021/10/28 17:42:46;;;;;;;1.75;1.58;;;;;;;8.93;58.16;100153.44;5112834;28;20020;-66
2021/10/28 17:45:13;;;;;;;2.50;1.95;;;;;;;8.95;58.47;100164.84;5094362;28;20099;-65
2021/10/28 17:47:40;;;;;;;2.10;1.70;;;;;;;8.87;58.61;100152.03;5095014;28;20027;-65
2021/10/28 17:50:07;;;;;;;2.20;2.00;;;;;;;8.99;58.27;100169.03;5112788;28;20028;-64
2021/10/28 17:52:33;;;;;;;3.20;1.75;;;;;;;9.01;58.38;100169.75;5094542;28;20402;-63
2021/10/28 17:55:00;;;;;;;2.15;1.90;;;;;;;9.00;58.21;100178.75;5094820;28;20036;-64
2021/10/28 17:57:26;;;;;;;2.17;1.98;;;;;;;8.95;58.29;100172.88;5094659;28;20119;-63
2021/10/28 17:59:51;;;;;;;1.95;1.77;;;;;;;8.84;58.57;100164.72;5093910;28;20408;-64
2021/10/28 18:02:17;;;;;;;3.88;2.38;;;;;;;8.87;58.50;100170.72;5111872;28;20050;-58
2021/10/28 18:04:43;;;;;;;3.30;2.30;;;;;;;8.83;58.74;100187.91;5112039;28;20488;-62
2021/10/28 18:07:11;;;;;;;3.42;2.60;;;;;;;8.78;58.79;100186.50;5111260;28;20028;-64
2021/10/28 18:09:37;;;;;;;2.67;2.47;;;;;;;8.73;59.00;100186.78;5066084;28;20464;-63
2021/10/28 18:12:04;;;;;;;3.80;2.80;;;;;;;8.78;59.15;100214.03;5057057;28;20187;-62
2021/10/28 18:14:30;;;;;;;3.20;2.67;;;;;;;8.73;58.64;100209.03;5090739;28;20180;-61
2021/10/28 18:16:57;;;;;;;3.17;2.88;;;;;;;8.78;58.58;100226.53;5072518;28;20055;-62
2021/10/28 18:19:24;;;;;;;5.47;3.17;;;;;;;8.77;58.99;100241.69;5091169;28;20408;-62
2021/10/28 18:21:54;;;;;;;4.47;2.80;;;;;;;8.74;58.54;100234.75;5056449;28;20040;-63
2021/10/28 18:24:21;;;;;;;3.92;3.00;;;;;;;8.49;58.27;100200.78;5073116;28;20040;-61
2021/10/28 18:26:46;;;;;;;3.30;2.85;;;;;;;8.45;58.41;100194.81;5091948;28;20108;-62
2021/10/28 18:29:12;;;;;;;3.63;2.45;;;;;;;8.73;57.68;100261.53;5072586;28;20126;-61
2021/10/28 18:31:38;;;;;;;2.83;2.50;;;;;;;8.67;57.95;100252.13;5111630;28;20038;-62
2021/10/28 18:34:05;;;;;;;2.65;2.45;;;;;;;8.69;57.97;100263.59;5093296;28;20027;-62
2021/10/28 18:36:33;;;;;;;2.50;1.95;;;;;;;8.69;57.91;100262.72;5110748;28;20034;-61
2021/10/28 18:38:59;;;;;;;3.00;2.00;;;;;;;8.65;57.58;100263.88;5111146;28;20031;-62
2021/10/28 18:41:26;;;;;;;2.70;2.40;;;;;;;8.64;57.96;100279.00;5111561;28;20036;-65
2021/10/28 18:43:51;;;;;;;2.72;2.35;;;;;;;8.69;57.90;100294.75;5111311;28;20027;-62
2021/10/28 18:46:21;;;;;;;3.50;1.98;;;;;;;8.70;57.41;100281.31;5100913;28;20119;-62
2021/10/28 18:48:47;;;;;;;2.40;1.92;;;;;;;8.68;57.72;100288.56;5072791;28;20046;-62
2021/10/28 18:51:14;;;;;;;2.13;1.92;;;;;;;8.56;57.42;100273.34;5056056;28;20463;-64
2021/10/28 18:53:41;;;;;;;4.15;1.50;;;;;;;8.71;57.32;100320.41;5090022;28;20060;-62
2021/10/28 18:56:07;;;;;;;2.80;1.80;;;;;;;8.72;57.40;100318.56;5090290;28;20047;-64
2021/10/28 18:58:33;;;;;;;2.10;1.85;;;;;;;8.68;57.69;100312.59;5071584;28;20428;-63
2021/10/28 19:00:59;;;;;;;1.77;1.50;;;;;;;8.74;57.21;100319.31;5090548;28;20044;-64
2021/10/28 19:03:25;;;;;;;2.13;1.50;;;;;;;8.74;57.29;100308.63;5056658;28;20031;-67
2021/10/28 19:05:53;;;;;;;2.83;1.33;;;;;;;8.75;57.29;100305.00;5072836;28;20028;-67
2021/10/28 19:08:19;;;;;;;6.30;1.50;;;;;;;8.72;57.02;100306.09;5055780;28;20373;-66
2021/10/28 19:10:44;;;;;;;1.85;1.30;;;;;;;8.82;56.94;100321.50;5091445;28;20048;-68
2021/10/28 19:13:10;;;;;;;2.92;1.73;;;;;;;8.85;57.00;100323.97;5091307;28;20040;-67
2021/10/28 19:15:36;;;;;;;1.92;1.70;;;;;;;8.79;57.35;100319.88;5056145;28;20131;-65
2021/10/28 19:18:02;;;;;;;2.42;2.13;;;;;;;8.90;57.10;100328.06;5090823;28;20117;-64
2021/10/28 19:20:28;;;;;;;2.63;1.92;;;;;;;8.84;57.79;100331.13;5089454;28;20042;-65
2021/10/28 19:22:55;;;;;;;2.13;1.85;;;;;;;8.61;58.15;100300.56;5097925;28;20085;-66
2021/10/28 19:25:22;;;;;;;2.53;1.73;;;;;;;8.78;58.17;100325.31;5109167;28;20036;-65
2021/10/28 19:27:54;;;;;;;1.98;1.73;;;;;;;8.83;58.05;100337.44;5092412;28;20463;-65
2021/10/28 19:32:47;;;;;;;2.75;1.90;;;;;;;8.84;58.97;100348.94;5109196;28;20030;-64
2021/10/28 19:35:14;;;;;;;4.03;2.38;;;;;;;8.71;58.86;100327.53;5111421;28;20039;-64
2021/10/28 19:37:50;;;;;;;2.40;2.03;;;;;;;8.92;58.39;100351.97;5092969;28;20092;-66
2021/10/28 19:46:08;;;;;;;4.45;2.80;;;;;;;8.97;58.09;100362.34;5075668;28;20062;-64
2021/10/28 19:48:16;;;;;;;4.43;2.72;;;;;;;8.97;57.39;100365.91;5089762;28;20040;-62
2021/10/28 19:50:43;;;;;;;3.75;2.80;;;;;;;8.90;57.17;100370.78;5091153;28;20032;-62
2021/10/28 19:53:08;;;;;;;4.45;3.15;;;;;;;8.86;57.67;100358.59;5090672;28;20032;-62
2021/10/28 19:55:35;;;;;;;5.05;2.90;;;;;;;8.84;57.44;100365.84;5073512;28;20081;-64
2021/10/28 19:58:01;;;;;;;4.68;2.92;;;;;;;8.67;57.70;100337.53;5056206;28;20042;-63
2021/10/28 20:00:32;;;;;;;5.32;3.72;;;;;;;8.86;57.59;100371.06;5073525;28;20055;-61
2021/10/28 20:03:24;;;;;;;4.72;3.25;;;;;;;8.87;57.70;100364.75;5090501;28;20464;-62
2021/10/28 20:22:25;;;;;;;5.85;3.58;;;;;;;9.10;57.22;100381.09;5110893;28;20115;-60
2021/10/28 20:24:51;;;;;;;4.50;3.40;;;;;;;9.02;57.82;100378.94;5111091;28;20118;-62
2021/10/28 20:27:17;;;;;;;5.35;3.72;;;;;;;9.05;57.60;100379.59;5109114;28;20035;-62
2021/10/28 20:29:43;;;;;;;5.32;3.80;;;;;;;8.96;57.39;100366.84;5111147;28;20043;-61
2021/10/28 20:32:08;;;;;;;6.88;3.90;;;;;;;9.04;57.98;100380.56;5091672;28;20032;-62
2021/10/28 20:34:48;;;;;;;5.47;3.65;;;;;;;9.08;57.89;100394.56;5068926;28;20020;-60
2021/10/28 20:37:13;;;;;;;6.03;4.05;;;;;;;9.10;57.65;100399.81;5096003;28;20024;-62
2021/10/28 20:39:42;;;;;;;6.05;3.70;;;;;;;9.07;57.83;100406.22;5093916;28;20039;-61
2021/10/28 20:42:10;;;;;;;5.57;3.90;;;;;;;9.10;57.77;100413.16;5093341;28;20032;-61
2021/10/28 20:44:35;;;;;;;6.28;3.88;;;;;;;9.09;57.61;100412.31;5076031;28;20120;-62
2021/10/28 20:47:02;;;;;;;7.15;4.03;;;;;;;9.12;57.78;100409.44;5096082;28;20460;-57
2021/10/28 20:49:28;;;;;;;7.60;3.75;;;;;;;8.96;57.94;100377.53;5092933;28;20531;-58
2021/10/28 20:51:53;;;;;;;8.23;4.40;;;;;;;8.86;57.92;100358.59;5110709;28;20034;-62
2021/10/28 20:54:23;;;;;;;6.85;4.00;;;;;;;9.10;57.74;100403.34;5097855;28;20448;-62
2021/10/28 20:56:51;;;;;;;5.45;3.60;;;;;;;9.09;57.56;100406.09;5087780;28;20105;-63
2021/10/28 20:59:18;;;;;;;6.07;4.15;;;;;;;9.08;57.91;100412.41;5111714;28;20027;-62
2021/10/28 21:01:46;;;;;;;6.10;4.00;;;;;;;9.06;58.09;100415.19;5069838;28;20081;-63
2021/10/28 21:04:12;;;;;;;6.50;3.92;;;;;;;9.07;58.03;100430.25;5099500;28;20028;-63